KMMK

Meriden Markham Municipal Airport

Meriden, Connecticut, USA
METAR KMMK 171753Z AUTO 26006G20KT 10SM FEW055 16/03 A2982 RMK AO2 SLP099 T01610033 10167 20022 56031 $
Observed Flight Rules
Oct-17 @ 17:53 UTC (38 minutes ago) Visual Flight Rules
Wind Visibility Clouds
260° at 6 knots
 Gusting to 20 knots
10 miles
  • Few at 5,500' AGL
Temperatures Readings
Current 16°C / 61°F
Dewpoint 3°C / 37°F
Humidity 42%
Altimeter 29.82" Hg
Pressure 1009.9 hPa
Elevation 31
METAR KMMK 171753Z AUTO 26006G20KT 10SM FEW055 16/03 A2982 RMK AO2 SLP099 T01610033 10167 20022 56031 $
Observed Flight Rules
Oct-17 @ 17:53 UTC
(38 minutes ago)
VFR
Wind Visibility
260° at 6 knots
 Gusting to 20 knots
10 miles
Clouds
  • Few at 5,500' AGL
Temperature Dewpoint
16°C / 61°F 3°C / 37°F
Humidity Altimeter Pressure
42% 29.82" Hg 1009.9 hPa